Flight Track Log - Related Links

Times and Time Zones

All times are in EDT time to prevent confusion due to time zone crossing. See the N6822E flight status page for this flight to view local times or setup timezone preferences in your user account.

Time Position Orientation Groundspeed Altitude Reporting Facility
EDT Latitude Longitude Course Direction KTS MPH feet Rate Location/Type
Wed 07:07:00 PM 30.1851 -84.1227 139° Southeast  Level Estimated
Wed 07:08:00 PM 30.1497 -84.0848 139° Southeast  Level Estimated
Wed 07:09:00 PM 30.1144 -84.0469 139° Southeast  Level Estimated
Wed 07:10:00 PM 30.0768 -84.0121 141° Southeast  Level FlightAware Approximate
Wed 07:11:00 PM 30.0392 -83.9773 141° Southeast  Level FlightAware Approximate
Wed 07:11:51 PM 30.1258 -84.0214 140° Southeast 162 186 7,200  Level Jacksonville Center
Wed 07:12:00 PM 30.0016 -83.9425 141° Southeast  Level FlightAware Approximate
Wed 07:12:51 PM 30.0947 -83.9897 139° Southeast 169 194 7,800  Level Jacksonville Center
Wed 07:13:00 PM 29.9640 -83.9077 141° Southeast  Level FlightAware Approximate
Wed 07:13:51 PM 30.0617 -83.9558 138° Southeast 169 194 8,500  Level Jacksonville Center
Wed 07:14:00 PM 29.9263 -83.8730 141° Southeast  Level FlightAware Approximate
Wed 07:14:51 PM 30.0244 -83.9217 142° Southeast 169 194 8,900  Level Jacksonville Center
Wed 07:15:00 PM 29.8911 -83.8351 140° Southeast  Level Estimated
Wed 07:15:51 PM 29.9828 -83.8831 141° Southeast 169 194 9,000  Level Jacksonville Center
Wed 07:16:00 PM 29.8542 -83.7992 140° Southeast  Level FlightAware Approximate
Wed 07:16:51 PM 29.9394 -83.8442 142° Southeast 188 216 9,000  Level Jacksonville Center
Wed 07:17:00 PM 29.8174 -83.7634 140° Southeast  Level FlightAware Approximate
Wed 07:17:51 PM 29.8981 -83.8006 138° Southeast 198 228 9,000  Level Jacksonville Center
Wed 07:18:51 PM 29.8544 -83.7594 141° Southeast 198 228 9,000  Level Jacksonville Center
Wed 07:19:51 PM 29.8150 -83.7256 143° Southeast 198 228 9,000  Level Jacksonville Center
Wed 07:20:51 PM 29.7756 -83.6847 138° Southeast 198 228 9,000  Level Jacksonville Center
Wed 07:21:51 PM 29.7319 -83.6461 142° Southeast 198 228 9,000  Level Jacksonville Center
Wed 07:22:51 PM 29.6903 -83.6075 141° Southeast 198 228 9,000  Level Jacksonville Center
Wed 07:23:51 PM 29.6508 -83.5664 138° Southeast 198 228 9,000  Level Jacksonville Center
Wed 07:24:51 PM 29.6072 -83.5281 143° Southeast 198 228 9,000  Level Jacksonville Center
Wed 07:25:51 PM 29.5658 -83.4872 139° Southeast 198 228 9,000  Level Jacksonville Center
Wed 07:26:51 PM 29.5242 -83.4464 140° Southeast 198 228 9,000  Level Jacksonville Center
Wed 07:27:51 PM 29.4806 -83.4056 141° Southeast 198 228 9,000  Level Jacksonville Center
Wed 07:28:51 PM 29.4389 -83.3694 143° Southeast 198 228 9,000  Level Jacksonville Center
Wed 07:29:51 PM 29.3972 -83.3264 138° Southeast 198 228 9,000  Level Jacksonville Center
Wed 07:30:51 PM 29.3536 -83.2881 143° Southeast 198 228 9,000  Level Jacksonville Center
Wed 07:31:51 PM 29.3119 -83.2475 140° Southeast 198 228 9,000  Level Jacksonville Center
Wed 07:32:51 PM 29.2683 -83.2092 143° Southeast 198 228 9,000 -50 Level Jacksonville Center
Wed 07:33:51 PM 29.2267 -83.1686 140° Southeast 198 228 8,900 -50 Descending Jacksonville Center
Wed 07:34:51 PM 29.1869 -83.1281 138° Southeast 198 228 8,900  Level Jacksonville Center
Wed 07:35:51 PM 29.1433 -83.0875 141° Southeast 198 228 8,900 50 Level Jacksonville Center
Wed 07:36:51 PM 29.1014 -83.0494 142° Southeast 198 228 9,000  Climbing Jacksonville Center
Wed 07:37:51 PM 29.0597 -83.0114 141° Southeast 198 228 8,900 -50 Descending Jacksonville Center
Wed 07:38:51 PM 29.0181 -82.9708 140° Southeast 198 228 8,900  Level Jacksonville Center
Wed 07:39:51 PM 28.9764 -82.9306 140° Southeast 198 228 8,900  Level Jacksonville Center
Wed 07:40:51 PM 28.9325 -82.8925 143° Southeast 198 228 8,900  Level Jacksonville Center
Wed 07:41:02 PM 28.9242 -82.8783 124° Southeast 203 234 8,900  Level Jacksonville Center
Wed 07:41:51 PM 28.9075 -82.8381 115° Southeast 193 222 8,900  Level Jacksonville Center
Wed 07:42:15 PM 28.8928 -82.8142 125° Southeast 197 227 8,900  Level Jacksonville Center
Wed 07:42:51 PM 28.8803 -82.7836 115° Southeast 193 222 8,900  Level Jacksonville Center
Wed 07:43:22 PM 28.8636 -82.7503 120° Southeast 196 226 8,900  Level Jacksonville Center
Wed 07:43:51 PM 28.8531 -82.7289 119° Southeast 193 222 8,900  Level Jacksonville Center
Wed 07:44:51 PM 28.8258 -82.6769 121° Southeast 193 222 8,900  Level Jacksonville Center
Wed 07:45:51 PM 28.7986 -82.6225 120° Southeast 193 222 8,900  Level Jacksonville Center
Wed 07:46:51 PM 28.7736 -82.5706 119° Southeast 193 222 8,900  Level Jacksonville Center
Wed 07:47:51 PM 28.7483 -82.5161 118° Southeast 193 222 8,900  Level Jacksonville Center
Wed 07:48:51 PM 28.7128 -82.4736 134° Southeast 188 216 8,900  Level Jacksonville Center
Wed 07:49:51 PM 28.6625 -82.4453 154° Southeast 183 211 8,900  Level Jacksonville Center
Wed 07:50:51 PM 28.6164 -82.4194 154° Southeast 183 211 8,900 38 Level Jacksonville Center
Wed 07:52:31 PM 28.5333 -82.3667 151° Southeast 189 217 9,000 38 Climbing Tampa TRACON
Wed 07:53:31 PM 28.4833 -82.3333 150° Southeast 189 217 9,000  Level Tampa TRACON
Wed 07:54:37 PM 28.4333 -82.3000 150° Southeast 189 217 9,000  Level Tampa TRACON
Wed 07:55:43 PM 28.3833 -82.2667 150° Southeast 189 217 9,000  Level Tampa TRACON
Wed 07:56:43 PM 28.3500 -82.2500 156° South 189 217 9,000  Level Tampa TRACON
Wed 07:57:37 PM 28.3000 -82.2167 150° Southeast 187 215 9,000  Level Tampa TRACON
Wed 07:58:44 PM 28.2500 -82.1833 150° Southeast 187 215 9,000  Level Tampa TRACON
Wed 07:59:44 PM 28.2000 -82.1500 150° Southeast 189 217 9,000  Level Tampa TRACON
Wed 08:00:44 PM 28.1667 -82.1333 156° South 190 219 9,000  Level Tampa TRACON
Wed 08:01:38 PM 28.1167 -82.1000 150° Southeast 190 219 9,000  Level Tampa TRACON
Wed 08:02:38 PM 28.0667 -82.0667 150° Southeast 191 220 9,000  Level Tampa TRACON
Wed 08:04:20 PM 28.0000 -82.0264 152° Southeast 192 221 9,000  Level Miami Center
Wed 08:05:21 PM 27.9478 -81.9847 145° Southeast 192 221 9,000  Level Miami Center
Wed 08:06:22 PM 27.9069 -81.9453 140° Southeast 192 221 9,000  Level Miami Center
Wed 08:07:24 PM 27.8689 -81.9025 135° Southeast 192 221 9,000  Level Miami Center
Wed 08:08:25 PM 27.8311 -81.8603 135° Southeast 192 221 9,000  Level Miami Center
Wed 08:09:26 PM 27.7944 -81.8156 133° Southeast 192 221 9,000  Level Miami Center
Wed 08:10:28 PM 27.7572 -81.7725 134° Southeast 192 221 9,000  Level Miami Center
Wed 08:11:29 PM 27.7203 -81.7292 134° Southeast 192 221 9,000  Level Miami Center
Wed 08:12:30 PM 27.6764 -81.6956 146° Southeast 191 220 9,000  Level Miami Center
Wed 08:13:32 PM 27.6314 -81.6628 147° Southeast 191 220 9,000  Level Miami Center
Wed 08:14:33 PM 27.5875 -81.6294 146° Southeast 191 220 9,000  Level Miami Center
Wed 08:15:35 PM 27.5431 -81.5956 146° Southeast 191 220 9,000  Level Miami Center
Wed 08:16:36 PM 27.4906 -81.5547 145° Southeast 192 221 9,000  Level Miami Center
Wed 08:17:37 PM 27.4467 -81.5211 146° Southeast 191 220 9,000  Level Miami Center
Wed 08:18:39 PM 27.4033 -81.4872 145° Southeast 191 220 9,000  Level Miami Center
Wed 08:19:40 PM 27.3603 -81.4539 145° Southeast 190 219 9,000  Level Miami Center
Wed 08:20:41 PM 27.3161 -81.4206 146° Southeast 190 219 9,000  Level Miami Center
Wed 08:21:43 PM 27.2725 -81.3875 146° Southeast 189 217 9,000  Level Miami Center
Wed 08:22:44 PM 27.2236 -81.3489 145° Southeast 189 217 9,000  Level Miami Center
Wed 08:23:45 PM 27.1817 -81.3178 147° Southeast 189 217 9,000  Level Miami Center
Wed 08:24:47 PM 27.1358 -81.2833 146° Southeast 189 217 9,000  Level Miami Center
Wed 08:25:48 PM 27.0903 -81.2481 145° Southeast 189 217 9,000  Level Miami Center
Wed 08:26:49 PM 27.0489 -81.2164 146° Southeast 189 217 9,000  Level Miami Center
Wed 08:27:50 PM 27.0022 -81.1831 148° Southeast 190 219 9,000  Level Miami Center
Wed 08:28:52 PM 26.9564 -81.1464 145° Southeast 190 219 9,000 -244 Level Miami Center
Wed 08:29:53 PM 26.9094 -81.1117 147° Southeast 203 234 8,500 -492 Descending Miami Center
Wed 08:30:54 PM 26.8614 -81.0761 147° Southeast 207 238 8,000 -492 Descending Miami Center
Wed 08:31:55 PM 26.8119 -81.0375 145° Southeast 206 237 7,500 -537 Descending Miami Center
Wed 08:32:57 PM 26.7628 -81.0011 147° Southeast 205 236 6,900 -488 Descending Miami Center
Wed 08:33:58 PM 26.7175 -80.9653 145° Southeast 205 236 6,500 -443 Descending Miami Center
Wed 08:34:59 PM 26.6692 -80.9289 146° Southeast 203 234 6,000 -492 Descending Miami Center
Wed 08:36:00 PM 26.6208 -80.8922 146° Southeast 202 232 5,500 -411 Descending Miami Center
Wed 08:36:12 PM 26.6119 -80.8850 144° Southeast 197 227 5,500 -393 Level Miami Center
Wed 08:37:01 PM 26.5783 -80.8603 147° Southeast 196 226 5,100 -456 Descending Miami Center
Wed 08:37:31 PM 26.5539 -80.8408 145° Southeast 192 221 4,900 -387 Descending Miami Center
Wed 08:38:03 PM 26.5322 -80.8256 148° Southeast 191 220 4,700 -393 Descending Miami Center
Wed 08:38:32 PM 26.5081 -80.8067 145° Southeast 192 221 4,500 -492 Descending Miami Center
Wed 08:39:04 PM 26.4856 -80.7889 145° Southeast 191 220 4,200 -393 Descending Miami Center
Wed 08:39:33 PM 26.4642 -80.7728 146° Southeast 192 221 4,100 -197 Descending Miami Center
Wed 08:40:05 PM 26.4419 -80.7553 145° Southeast 188 216 4,000 -100 Descending Miami Center
Wed 08:40:33 PM 26.4203 -80.7414 150° Southeast 185 213 4,000  Level Miami Center
Wed 08:41:06 PM 26.4000 -80.7247 144° Southeast 181 208 4,000  Level Miami Center
Wed 08:41:34 PM 26.3764 -80.7097 150° Southeast 177 204 4,000  Level Miami Center
Wed 08:42:07 PM 26.3569 -80.6978 151° Southeast 178 205 4,000  Level Miami Center
Wed 08:42:35 PM 26.3339 -80.6831 150° Southeast 176 203 4,000 -197 Level Miami Center
Wed 08:43:08 PM 26.3161 -80.6606 131° Southeast 184 212 3,800 -358 Descending Miami Center
Wed 08:43:42 PM 26.3167 -80.6283 89° East 192 221 3,600 -492 Descending Miami Center
Wed 08:44:09 PM 26.3197 -80.5994 83° East 195 224 3,300 -492 Descending Miami Center
Wed 08:44:43 PM 26.3208 -80.5658 88° East 200 230 3,100 -295 Descending Miami Center
Wed 08:45:10 PM 26.3231 -80.5383 85° East 198 228 3,000 -122 Descending Miami Center
Wed 08:45:32 PM 26.3239 -80.5172 87° East 193 222 3,000  Level Miami Center
Wed 08:46:11 PM 26.3267 -80.4817 85° East 185 213 3,000  Level Miami Center
Wed 08:46:39 PM 26.3278 -80.4572 87° East 179 206 3,000  Level Miami Center
Wed 08:47:13 PM 26.3314 -80.4256 83° East 184 212 3,000  Level Miami Center
Wed 08:47:28 PM 26.3331 -80.4086 84° East 182 209 3,000  Level Miami Center
Wed 08:48:14 PM 26.3436 -80.3669 74° East 182 209 3,000  Level Miami Center
Wed 08:48:47 PM 26.3500 -80.3381 76° East 181 208 3,000  Level Miami Center
Wed 08:49:15 PM 26.3567 -80.3125 74° East 182 209 3,000  Level Miami Center
Wed 08:49:42 PM 26.3614 -80.2900 77° East 175 201 3,000  Level Miami Center
Wed 08:50:16 PM 26.3678 -80.2622 76° East 168 193 3,000 -218 Level Miami Center
Wed 08:50:37 PM 26.3664 -80.2439 95° East 154 177 2,800 -590 Descending Miami Center
Wed 08:51:17 PM 26.3597 -80.2131 104° East 168 193 2,400 -537 Descending Miami Center
Wed 08:51:44 PM 26.3486 -80.1914 120° Southeast 170 196 2,200 -492 Descending Miami Center
Wed 08:52:18 PM 26.3258 -80.1772 151° Southeast 165 190 1,900 -600 Descending Miami Center
Wed 08:52:44 PM 26.3106 -80.1653 145° Southeast 151 174 1,600 -689 Descending Miami Center
Wed 08:53:19 PM 26.2964 -80.1514 139° Southeast 139 160 1,200 -689 Descending Miami Center
Wed 08:53:45 PM 26.2867 -80.1447 148° Southeast 99 114 900 -632 Descending Miami Center
Wed 08:54:35 PM 26.2667 -80.1294 146° Southeast 104 120 400 -495 Descending Miami Center
Wed 08:55:22 PM 26.2503 -80.1133 139° Southeast 105 121 100 -383 Descending Miami Center
Wed 08:57:00 PM 26.2474 -80.1112 90° East  Level Estimated

Login

Don't have an account? Register now (free) for customized features, flight alerts, and more!